Time;durP1;ratioP1;P1;durP2;ratioP2;P2;SDS_P1;SDS_P2;PMS_P1;PMS_P2;Temp;Humidity;BMP_temperature;BMP_pressure;BME280_temperature;BME280_humidity;BME280_pressure;Samples;Min_cycle;Max_cycle;Signal;HPM_P1;HPM_P2
2023/09/17 00:00:15;;;;;;;23.45;19.10;;;;;;;;;;5054443;28;20369;-64
2023/09/17 00:02:41;;;;;;;24.30;20.65;;;;;;;;;;5054299;28;20045;-64
2023/09/17 00:05:08;;;;;;;25.17;20.58;;;;;;;;;;5054617;28;20056;-64
2023/09/17 00:07:34;;;;;;;26.15;19.73;;;;;;;;;;5054478;28;20041;-64
2023/09/17 00:10:00;;;;;;;26.98;20.67;;;;;;;;;;5053924;28;20075;-64
2023/09/17 00:12:26;;;;;;;25.13;20.90;;;;;;;;;;5054358;28;20037;-64
2023/09/17 00:14:52;;;;;;;28.02;22.05;;;;;;;;;;5054459;28;20388;-64
2023/09/17 00:17:18;;;;;;;26.77;20.80;;;;;;;;;;5040842;28;20045;-64
2023/09/17 00:19:44;;;;;;;22.40;19.95;;;;;;;;;;5034455;28;20049;-64
2023/09/17 00:22:14;;;;;;;25.77;20.70;;;;;;;;;;5034386;28;20045;-64
2023/09/17 00:24:40;;;;;;;21.83;19.08;;;;;;;;;;5033908;28;20081;-64
2023/09/17 00:27:06;;;;;;;23.75;20.33;;;;;;;;;;5053849;28;20094;-64
2023/09/17 00:29:32;;;;;;;25.50;19.40;;;;;;;;;;5054197;28;20041;-64
2023/09/17 00:31:58;;;;;;;24.23;19.35;;;;;;;;;;5053511;28;20082;-64
2023/09/17 00:34:24;;;;;;;25.55;20.25;;;;;;;;;;5054103;28;20586;-64
2023/09/17 00:36:51;;;;;;;26.45;20.67;;;;;;;;;;5054024;28;20033;-64
2023/09/17 00:39:17;;;;;;;28.23;19.83;;;;;;;;;;5053731;28;20407;-64
2023/09/17 00:41:43;;;;;;;28.40;21.52;;;;;;;;;;5053873;28;20656;-64
2023/09/17 00:44:10;;;;;;;25.63;20.17;;;;;;;;;;5053365;28;20041;-64
2023/09/17 00:46:36;;;;;;;27.02;21.38;;;;;;;;;;5053412;28;20045;-64
2023/09/17 00:49:02;;;;;;;24.27;20.92;;;;;;;;;;5053599;28;20426;-64
2023/09/17 00:51:29;;;;;;;25.60;21.40;;;;;;;;;;5053412;28;20053;-64
2023/09/17 00:53:57;;;;;;;25.20;21.60;;;;;;;;;;5052300;28;20049;-64
2023/09/17 00:56:23;;;;;;;24.42;21.77;;;;;;;;;;5053668;28;20594;-64
2023/09/17 00:58:50;;;;;;;27.52;21.45;;;;;;;;;;5053312;28;20037;-65
2023/09/17 01:01:16;;;;;;;30.58;22.75;;;;;;;;;;5053252;28;20076;-65
2023/09/17 01:03:42;;;;;;;29.27;23.20;;;;;;;;;;5053500;28;20485;-64
2023/09/17 01:06:11;;;;;;;23.75;21.17;;;;;;;;;;5035489;28;20033;-64
2023/09/17 01:08:39;;;;;;;26.60;22.55;;;;;;;;;;5052872;28;20103;-64
2023/09/17 01:11:07;;;;;;;28.65;23.33;;;;;;;;;;5053401;28;20048;-64
2023/09/17 01:13:38;;;;;;;29.75;22.63;;;;;;;;;;5052853;28;20052;-64
2023/09/17 01:16:05;;;;;;;29.65;21.42;;;;;;;;;;5050187;28;20103;-64
2023/09/17 01:18:32;;;;;;;27.42;23.42;;;;;;;;;;5033258;28;20041;-64
2023/09/17 01:21:06;;;;;;;31.40;23.25;;;;;;;;;;5033278;28;20056;-64
2023/09/17 01:23:36;;;;;;;30.40;23.85;;;;;;;;;;5032801;28;20037;-64
2023/09/17 01:26:08;;;;;;;28.08;23.40;;;;;;;;;;5044218;28;20147;-64
2023/09/17 01:28:34;;;;;;;30.27;23.70;;;;;;;;;;5052703;28;20045;-64
2023/09/17 01:31:00;;;;;;;29.52;25.27;;;;;;;;;;5052681;28;20048;-64
2023/09/17 01:33:28;;;;;;;30.45;24.40;;;;;;;;;;5052927;28;20091;-64
2023/09/17 01:36:02;;;;;;;34.35;24.67;;;;;;;;;;5052771;28;20041;-64
2023/09/17 01:38:32;;;;;;;32.30;26.20;;;;;;;;;;5052391;28;20076;-64
2023/09/17 01:40:59;;;;;;;33.28;25.90;;;;;;;;;;5034501;28;20060;-64
2023/09/17 01:43:25;;;;;;;30.58;26.13;;;;;;;;;;5034643;28;20087;-64
2023/09/17 01:45:52;;;;;;;32.28;25.27;;;;;;;;;;5052151;28;20056;-64
2023/09/17 01:48:18;;;;;;;31.92;25.27;;;;;;;;;;5052088;28;20041;-64
2023/09/17 01:50:45;;;;;;;36.55;26.67;;;;;;;;;;5051457;28;20063;-64
2023/09/17 01:53:12;;;;;;;34.22;25.75;;;;;;;;;;5052012;28;20040;-64
2023/09/17 01:55:37;;;;;;;32.88;25.98;;;;;;;;;;5052137;28;20196;-64
2023/09/17 01:58:04;;;;;;;32.20;26.15;;;;;;;;;;5052101;28;20068;-64
2023/09/17 02:00:31;;;;;;;30.25;25.15;;;;;;;;;;5051191;28;20041;-64
2023/09/17 02:02:57;;;;;;;31.45;25.55;;;;;;;;;;5051851;28;20427;-64
2023/09/17 02:05:25;;;;;;;32.42;25.42;;;;;;;;;;5051338;28;20041;-64
2023/09/17 02:07:52;;;;;;;34.05;25.77;;;;;;;;;;5051322;28;20056;-64
2023/09/17 02:10:18;;;;;;;28.58;24.13;;;;;;;;;;5051960;28;20045;-64
2023/09/17 02:12:44;;;;;;;30.63;24.60;;;;;;;;;;5052181;28;20491;-64
2023/09/17 02:15:11;;;;;;;30.30;25.30;;;;;;;;;;5051703;28;20041;-64
2023/09/17 02:17:37;;;;;;;32.97;25.88;;;;;;;;;;5036743;28;20673;-64
2023/09/17 02:20:05;;;;;;;30.08;25.42;;;;;;;;;;5032194;28;20038;-64
2023/09/17 02:22:31;;;;;;;34.20;25.88;;;;;;;;;;5031470;28;20041;-64
2023/09/17 02:24:57;;;;;;;33.85;25.73;;;;;;;;;;5033955;28;20129;-64
2023/09/17 02:27:23;;;;;;;31.98;24.02;;;;;;;;;;5051851;28;20045;-64
2023/09/17 02:29:49;;;;;;;35.20;27.40;;;;;;;;;;5051407;28;20040;-64
2023/09/17 02:32:15;;;;;;;31.50;25.30;;;;;;;;;;5051809;28;20040;-64
2023/09/17 02:34:41;;;;;;;33.35;25.00;;;;;;;;;;5051712;28;20091;-64
2023/09/17 02:37:07;;;;;;;31.98;26.15;;;;;;;;;;5051506;28;20040;-64
2023/09/17 02:39:35;;;;;;;34.65;27.50;;;;;;;;;;5051598;28;20128;-64
2023/09/17 02:42:01;;;;;;;33.10;26.35;;;;;;;;;;5033475;28;20498;-64
2023/09/17 02:44:27;;;;;;;33.78;26.23;;;;;;;;;;5051188;28;20059;-64
2023/09/17 02:46:53;;;;;;;37.17;27.77;;;;;;;;;;5051599;28;20048;-64
2023/09/17 02:49:22;;;;;;;32.53;26.27;;;;;;;;;;5051500;28;20037;-64
2023/09/17 02:51:48;;;;;;;32.08;25.95;;;;;;;;;;5051108;28;20048;-64
2023/09/17 02:54:14;;;;;;;33.35;25.73;;;;;;;;;;5051458;28;20045;-64
2023/09/17 02:56:42;;;;;;;35.90;28.27;;;;;;;;;;5051645;28;20053;-64
2023/09/17 02:59:08;;;;;;;35.88;27.40;;;;;;;;;;5051192;28;20210;-64
2023/09/17 03:01:35;;;;;;;31.52;24.73;;;;;;;;;;5051437;28;20069;-64
2023/09/17 03:04:02;;;;;;;36.17;27.38;;;;;;;;;;5051405;28;20499;-64
2023/09/17 03:06:30;;;;;;;34.17;25.65;;;;;;;;;;5050835;28;20060;-64
2023/09/17 03:08:56;;;;;;;33.00;26.20;;;;;;;;;;5051174;28;20053;-64
2023/09/17 03:11:23;;;;;;;35.15;26.00;;;;;;;;;;5051478;28;20041;-64
2023/09/17 03:13:50;;;;;;;32.75;27.20;;;;;;;;;;5050845;28;20387;-64
2023/09/17 03:16:17;;;;;;;33.72;26.42;;;;;;;;;;5047034;28;20516;-64
2023/09/17 03:18:43;;;;;;;35.25;26.83;;;;;;;;;;5035068;28;20496;-64
2023/09/17 03:21:09;;;;;;;33.50;26.13;;;;;;;;;;5035126;28;20037;-64
2023/09/17 03:23:35;;;;;;;34.05;26.95;;;;;;;;;;5035388;28;20045;-64
2023/09/17 03:26:03;;;;;;;37.00;27.92;;;;;;;;;;5046213;28;20123;-64
2023/09/17 03:28:29;;;;;;;36.15;28.60;;;;;;;;;;5054557;28;20190;-64
2023/09/17 03:30:56;;;;;;;38.30;28.25;;;;;;;;;;5055209;28;20047;-64
2023/09/17 03:33:22;;;;;;;40.88;29.17;;;;;;;;;;5055244;28;20041;-64
2023/09/17 03:35:48;;;;;;;39.80;28.92;;;;;;;;;;5054741;28;20142;-64
2023/09/17 03:38:14;;;;;;;38.13;28.27;;;;;;;;;;5055196;28;20403;-64
2023/09/17 03:40:41;;;;;;;35.85;27.55;;;;;;;;;;5055117;28;20128;-64
2023/09/17 03:43:08;;;;;;;37.42;29.92;;;;;;;;;;5036988;28;20391;-64
2023/09/17 03:45:34;;;;;;;39.47;28.80;;;;;;;;;;5054967;28;20098;-64
2023/09/17 03:48:01;;;;;;;38.00;28.67;;;;;;;;;;5055020;28;20046;-64
2023/09/17 03:50:27;;;;;;;35.92;28.77;;;;;;;;;;5054241;28;20053;-64
2023/09/17 03:52:55;;;;;;;35.30;27.67;;;;;;;;;;5054808;28;20057;-64
2023/09/17 03:55:21;;;;;;;35.95;29.70;;;;;;;;;;5036800;28;20464;-64
2023/09/17 03:57:47;;;;;;;35.35;28.88;;;;;;;;;;5054449;28;20098;-64
2023/09/17 04:00:15;;;;;;;39.15;30.17;;;;;;;;;;5054747;28;20498;-64
2023/09/17 04:02:42;;;;;;;36.58;27.88;;;;;;;;;;5054749;28;20368;-64
2023/09/17 04:05:10;;;;;;;36.83;29.40;;;;;;;;;;5054166;28;20551;-64
2023/09/17 04:07:36;;;;;;;35.95;28.52;;;;;;;;;;5054686;28;20079;-64
2023/09/17 04:10:05;;;;;;;38.58;28.70;;;;;;;;;;5054545;28;20037;-64
2023/09/17 04:12:35;;;;;;;37.00;29.77;;;;;;;;;;5053959;28;20041;-64
2023/09/17 04:15:12;;;;;;;37.92;30.52;;;;;;;;;;5054335;28;20048;-64
2023/09/17 04:17:38;;;;;;;41.25;30.17;;;;;;;;;;5038912;28;20049;-64
2023/09/17 04:20:09;;;;;;;41.75;30.95;;;;;;;;;;5034023;28;20045;-64
2023/09/17 04:22:35;;;;;;;42.70;31.25;;;;;;;;;;5016718;28;20033;-64
2023/09/17 04:25:01;;;;;;;37.55;29.67;;;;;;;;;;5036705;28;20124;-64
2023/09/17 04:27:27;;;;;;;39.65;29.67;;;;;;;;;;5053515;28;20156;-64
2023/09/17 04:29:53;;;;;;;44.40;31.67;;;;;;;;;;5052874;28;20037;-64
2023/09/17 04:32:19;;;;;;;43.83;31.52;;;;;;;;;;5036182;28;20041;-64
2023/09/17 04:34:45;;;;;;;39.53;30.42;;;;;;;;;;5053707;28;20507;-64
2023/09/17 04:37:11;;;;;;;40.33;32.15;;;;;;;;;;5054104;28;20037;-64
2023/09/17 04:39:38;;;;;;;43.10;31.65;;;;;;;;;;5054056;28;20041;-64
2023/09/17 04:42:05;;;;;;;43.30;29.90;;;;;;;;;;5053256;28;20048;-64
2023/09/17 04:44:31;;;;;;;41.45;29.63;;;;;;;;;;5053975;28;20442;-64
2023/09/17 04:46:57;;;;;;;40.28;31.63;;;;;;;;;;5053835;28;20041;-64
2023/09/17 04:49:23;;;;;;;40.33;31.65;;;;;;;;;;5053411;28;20044;-64
2023/09/17 04:51:49;;;;;;;40.70;30.63;;;;;;;;;;5053864;28;20037;-64
2023/09/17 04:54:15;;;;;;;43.35;32.60;;;;;;;;;;5053572;28;20040;-64
2023/09/17 04:56:41;;;;;;;46.95;32.13;;;;;;;;;;5053259;28;20037;-64
2023/09/17 04:59:07;;;;;;;47.38;32.65;;;;;;;;;;5053500;28;20048;-64
2023/09/17 05:01:33;;;;;;;47.22;33.85;;;;;;;;;;5053378;28;20052;-64
2023/09/17 05:03:59;;;;;;;44.40;32.92;;;;;;;;;;5053044;28;20040;-64
2023/09/17 05:06:25;;;;;;;39.42;31.55;;;;;;;;;;5053469;28;20037;-64
2023/09/17 05:08:51;;;;;;;45.10;32.65;;;;;;;;;;5053478;28;20041;-64
2023/09/17 05:11:17;;;;;;;47.20;33.80;;;;;;;;;;5053026;28;20041;-64
2023/09/17 05:13:43;;;;;;;42.85;33.78;;;;;;;;;;5052968;28;20037;-64
2023/09/17 05:16:10;;;;;;;45.53;32.00;;;;;;;;;;5049763;28;20068;-64
2023/09/17 05:18:36;;;;;;;47.33;32.22;;;;;;;;;;5033340;28;20064;-64
2023/09/17 05:21:02;;;;;;;43.35;31.98;;;;;;;;;;5032983;28;20045;-64
2023/09/17 05:23:28;;;;;;;47.38;33.97;;;;;;;;;;5033339;28;20049;-64
2023/09/17 05:25:55;;;;;;;43.72;32.80;;;;;;;;;;5042831;28;20087;-64
2023/09/17 05:28:21;;;;;;;44.88;33.85;;;;;;;;;;5052690;28;20049;-64
2023/09/17 05:30:47;;;;;;;46.25;33.30;;;;;;;;;;5053174;28;20041;-64
2023/09/17 05:33:14;;;;;;;49.67;34.88;;;;;;;;;;5052931;28;20066;-64
2023/09/17 05:35:39;;;;;;;46.45;34.83;;;;;;;;;;5052492;28;20103;-64
2023/09/17 05:38:06;;;;;;;50.30;35.53;;;;;;;;;;5052872;28;20439;-64
2023/09/17 05:40:32;;;;;;;52.13;36.72;;;;;;;;;;5052352;28;20542;-64
2023/09/17 05:42:58;;;;;;;51.72;35.28;;;;;;;;;;5052116;28;20081;-64
2023/09/17 05:45:25;;;;;;;45.53;34.67;;;;;;;;;;5052682;28;20052;-64
2023/09/17 05:47:51;;;;;;;45.95;34.75;;;;;;;;;;5052640;28;20055;-64
2023/09/17 05:50:17;;;;;;;46.03;34.33;;;;;;;;;;5051916;28;20084;-64
2023/09/17 05:52:43;;;;;;;47.80;34.55;;;;;;;;;;5052538;28;20068;-64
2023/09/17 05:55:09;;;;;;;46.03;35.58;;;;;;;;;;5052450;28;20086;-64
2023/09/17 05:57:35;;;;;;;45.10;33.10;;;;;;;;;;5052094;28;20415;-64
2023/09/17 06:00:03;;;;;;;52.05;35.85;;;;;;;;;;5052297;28;20044;-64
2023/09/17 06:02:30;;;;;;;48.35;36.22;;;;;;;;;;5052323;28;20048;-64
2023/09/17 06:04:56;;;;;;;48.95;34.55;;;;;;;;;;5051841;28;20048;-64
2023/09/17 06:07:23;;;;;;;46.95;34.50;;;;;;;;;;5052135;28;20075;-64
2023/09/17 06:09:49;;;;;;;45.13;34.67;;;;;;;;;;5052072;28;20041;-64
2023/09/17 06:12:15;;;;;;;46.20;34.78;;;;;;;;;;5051744;28;20404;-64
2023/09/17 06:14:42;;;;;;;41.67;32.63;;;;;;;;;;5051947;28;20041;-64
2023/09/17 06:17:08;;;;;;;47.10;34.65;;;;;;;;;;5040730;28;20458;-64
2023/09/17 06:19:36;;;;;;;46.53;34.55;;;;;;;;;;5031880;28;20389;-64
2023/09/17 06:22:02;;;;;;;45.78;33.42;;;;;;;;;;5032149;28;20439;-64
2023/09/17 06:24:28;;;;;;;39.33;32.20;;;;;;;;;;5032001;28;20414;-64
2023/09/17 06:26:55;;;;;;;41.67;32.40;;;;;;;;;;5049541;28;20033;-64
2023/09/17 06:29:21;;;;;;;41.80;34.63;;;;;;;;;;5052034;28;20475;-64
2023/09/17 06:31:47;;;;;;;40.90;33.63;;;;;;;;;;5051631;28;20044;-64
2023/09/17 06:34:13;;;;;;;39.35;32.15;;;;;;;;;;5051080;28;20120;-64
2023/09/17 06:36:40;;;;;;;45.10;33.90;;;;;;;;;;5051815;28;20060;-64
2023/09/17 06:39:06;;;;;;;42.25;33.42;;;;;;;;;;5051866;28;20048;-64
2023/09/17 06:41:33;;;;;;;38.72;31.90;;;;;;;;;;5051253;28;20451;-64
2023/09/17 06:43:59;;;;;;;41.75;31.35;;;;;;;;;;5051603;28;20110;-64
2023/09/17 06:46:25;;;;;;;41.08;31.98;;;;;;;;;;5051331;28;20037;-64
2023/09/17 06:48:51;;;;;;;38.53;31.35;;;;;;;;;;5051281;28;20076;-64
2023/09/17 06:51:17;;;;;;;41.28;32.88;;;;;;;;;;5050956;28;20049;-64
2023/09/17 06:53:44;;;;;;;39.03;31.90;;;;;;;;;;5051067;28;20110;-64
2023/09/17 06:56:11;;;;;;;42.47;33.40;;;;;;;;;;5050864;28;20056;-64
2023/09/17 06:58:37;;;;;;;43.63;32.63;;;;;;;;;;5051472;28;20060;-64
2023/09/17 07:01:03;;;;;;;42.22;32.47;;;;;;;;;;5051611;28;20426;-64
2023/09/17 07:03:29;;;;;;;39.45;31.27;;;;;;;;;;5050979;28;20357;-64
2023/09/17 07:05:55;;;;;;;40.75;33.13;;;;;;;;;;5051479;28;20051;-64
2023/09/17 07:08:21;;;;;;;43.15;31.10;;;;;;;;;;5051202;28;20049;-64
2023/09/17 07:10:47;;;;;;;44.75;34.90;;;;;;;;;;5051077;28;20037;-64
2023/09/17 07:13:13;;;;;;;45.38;34.50;;;;;;;;;;5051054;28;20095;-64
2023/09/17 07:15:39;;;;;;;39.65;32.83;;;;;;;;;;5033528;28;20056;-64
2023/09/17 07:18:10;;;;;;;40.92;34.10;;;;;;;;;;5031700;28;20460;-64
2023/09/17 07:20:36;;;;;;;47.60;34.15;;;;;;;;;;5031375;28;20045;-64
2023/09/17 07:23:02;;;;;;;46.97;32.60;;;;;;;;;;5031430;28;20042;-64
2023/09/17 07:25:29;;;;;;;43.30;33.53;;;;;;;;;;5037180;28;20033;-64
2023/09/17 07:27:55;;;;;;;41.67;33.00;;;;;;;;;;5033168;28;20073;-64
2023/09/17 07:30:21;;;;;;;41.08;32.85;;;;;;;;;;5051271;28;20476;-64
2023/09/17 07:32:47;;;;;;;40.50;32.83;;;;;;;;;;5050763;28;20037;-64
2023/09/17 07:35:13;;;;;;;44.38;33.20;;;;;;;;;;5051120;28;20120;-64
2023/09/17 07:37:39;;;;;;;39.67;32.97;;;;;;;;;;5051059;28;20099;-64
2023/09/17 07:40:06;;;;;;;46.35;34.85;;;;;;;;;;5050549;28;20047;-64
2023/09/17 07:42:32;;;;;;;42.50;33.10;;;;;;;;;;5050993;28;20041;-64
2023/09/17 07:44:58;;;;;;;44.95;34.20;;;;;;;;;;5050975;28;20037;-64
2023/09/17 07:47:24;;;;;;;38.80;31.83;;;;;;;;;;5050696;28;20083;-64
2023/09/17 07:49:50;;;;;;;42.15;32.67;;;;;;;;;;5050855;28;20049;-64
2023/09/17 07:52:16;;;;;;;43.05;33.22;;;;;;;;;;5050811;28;20056;-64
2023/09/17 07:54:43;;;;;;;43.92;34.05;;;;;;;;;;5050402;28;20424;-64
2023/09/17 07:57:13;;;;;;;43.17;34.30;;;;;;;;;;5051057;28;20049;-64
2023/09/17 07:59:39;;;;;;;40.08;31.88;;;;;;;;;;5050640;28;20041;-64
2023/09/17 08:02:05;;;;;;;43.97;33.90;;;;;;;;;;5050484;28;20140;-64
2023/09/17 08:04:31;;;;;;;39.60;32.70;;;;;;;;;;5053582;28;20112;-64
2023/09/17 08:06:57;;;;;;;45.45;35.75;;;;;;;;;;5054550;28;20124;-64
2023/09/17 08:09:23;;;;;;;41.10;34.25;;;;;;;;;;5036378;28;20047;-64
2023/09/17 08:11:50;;;;;;;47.17;34.60;;;;;;;;;;5054347;28;20045;-64
2023/09/17 08:14:17;;;;;;;43.72;34.58;;;;;;;;;;5054252;28;20041;-64
2023/09/17 08:16:43;;;;;;;43.90;35.67;;;;;;;;;;5046065;28;20041;-64
2023/09/17 08:19:10;;;;;;;41.95;32.75;;;;;;;;;;5016697;28;20045;-64
2023/09/17 08:21:36;;;;;;;43.65;33.80;;;;;;;;;;5034485;28;20472;-64
2023/09/17 08:24:02;;;;;;;44.33;35.50;;;;;;;;;;5033791;28;20541;-64
2023/09/17 08:26:28;;;;;;;46.95;34.90;;;;;;;;;;5048621;28;20068;-64
2023/09/17 08:29:00;;;;;;;45.67;34.75;;;;;;;;;;5054315;28;20041;-64
2023/09/17 08:31:26;;;;;;;44.47;34.05;;;;;;;;;;5053842;28;20664;-64
2023/09/17 08:33:53;;;;;;;43.38;34.88;;;;;;;;;;5036222;28;20045;-64
2023/09/17 08:36:22;;;;;;;45.35;34.45;;;;;;;;;;5053764;28;20048;-64
2023/09/17 08:38:53;;;;;;;40.75;32.78;;;;;;;;;;5053676;28;20041;-64
2023/09/17 08:41:19;;;;;;;47.40;34.15;;;;;;;;;;5053981;28;20080;-64
2023/09/17 08:43:46;;;;;;;37.17;31.35;;;;;;;;;;5053914;28;20056;-64
2023/09/17 08:46:12;;;;;;;43.17;33.97;;;;;;;;;;5053584;28;20044;-64
2023/09/17 08:48:38;;;;;;;43.10;32.65;;;;;;;;;;5053777;28;20613;-64
2023/09/17 08:51:05;;;;;;;37.88;33.17;;;;;;;;;;5053480;28;20570;-64
2023/09/17 08:53:32;;;;;;;38.90;32.05;;;;;;;;;;5053000;28;20099;-64
2023/09/17 08:55:58;;;;;;;36.30;30.45;;;;;;;;;;5053707;28;20102;-64
2023/09/17 08:58:29;;;;;;;40.58;31.05;;;;;;;;;;5035820;28;20048;-64
2023/09/17 09:00:58;;;;;;;44.85;30.65;;;;;;;;;;5053341;28;20036;-64
2023/09/17 09:03:25;;;;;;;43.08;31.80;;;;;;;;;;5053294;28;20045;-64
2023/09/17 09:05:55;;;;;;;40.42;30.88;;;;;;;;;;5053412;28;20051;-64
2023/09/17 09:08:21;;;;;;;38.78;30.65;;;;;;;;;;5053004;28;20049;-64
2023/09/17 09:10:48;;;;;;;43.63;31.92;;;;;;;;;;5053406;28;20435;-64
2023/09/17 09:13:14;;;;;;;39.80;31.00;;;;;;;;;;5053397;28;20103;-64
2023/09/17 09:15:41;;;;;;;40.05;30.70;;;;;;;;;;5052178;28;20033;-64
2023/09/17 09:18:08;;;;;;;36.40;30.13;;;;;;;;;;5033554;28;20427;-64
2023/09/17 09:20:36;;;;;;;38.50;29.65;;;;;;;;;;5015701;28;20468;-64
2023/09/17 09:23:02;;;;;;;38.70;29.08;;;;;;;;;;5032894;28;20041;-64
2023/09/17 09:25:29;;;;;;;39.85;29.05;;;;;;;;;;5039314;28;20041;-64
2023/09/17 09:28:04;;;;;;;36.08;29.55;;;;;;;;;;5053017;28;20047;-64
2023/09/17 09:30:30;;;;;;;38.78;28.92;;;;;;;;;;5052507;28;20532;-64
2023/09/17 09:32:56;;;;;;;35.83;28.88;;;;;;;;;;5052981;28;20040;-64
2023/09/17 09:35:23;;;;;;;32.92;28.52;;;;;;;;;;5052836;28;20045;-64
2023/09/17 09:37:51;;;;;;;35.90;29.10;;;;;;;;;;5052537;28;20510;-64
2023/09/17 09:40:17;;;;;;;34.85;28.30;;;;;;;;;;5034881;28;20426;-64
2023/09/17 09:42:46;;;;;;;40.28;28.50;;;;;;;;;;5052743;28;20048;-64
2023/09/17 09:45:15;;;;;;;34.58;28.83;;;;;;;;;;5052270;28;20041;-64
2023/09/17 09:47:45;;;;;;;32.88;27.73;;;;;;;;;;5052627;28;20090;-64
2023/09/17 09:50:20;;;;;;;32.85;27.38;;;;;;;;;;5052429;28;20084;-64
2023/09/17 09:52:48;;;;;;;34.45;28.23;;;;;;;;;;5052241;28;20049;-64
2023/09/17 09:55:14;;;;;;;33.22;26.85;;;;;;;;;;5052479;28;20403;-64
2023/09/17 09:57:41;;;;;;;33.88;26.65;;;;;;;;;;5052568;28;20061;-64
2023/09/17 10:00:12;;;;;;;36.05;27.45;;;;;;;;;;5052115;28;20391;-64
2023/09/17 10:02:38;;;;;;;33.30;27.05;;;;;;;;;;5052440;28;20128;-64
2023/09/17 10:05:05;;;;;;;31.95;27.23;;;;;;;;;;5052308;28;20411;-64
2023/09/17 10:07:31;;;;;;;32.28;25.25;;;;;;;;;;5051911;28;20044;-64
2023/09/17 10:09:57;;;;;;;32.65;24.88;;;;;;;;;;5051956;28;20044;-64
2023/09/17 10:12:23;;;;;;;34.65;27.63;;;;;;;;;;5052209;28;20041;-64
2023/09/17 10:14:50;;;;;;;33.58;26.70;;;;;;;;;;5051709;28;20056;-64
2023/09/17 10:17:17;;;;;;;36.63;27.52;;;;;;;;;;5039753;28;20041;-64
2023/09/17 10:19:43;;;;;;;37.05;29.95;;;;;;;;;;5032231;28;20037;-64
2023/09/17 10:22:10;;;;;;;38.08;29.65;;;;;;;;;;5014128;28;20638;-64
2023/09/17 10:24:39;;;;;;;39.13;30.55;;;;;;;;;;5032197;28;20349;-64
2023/09/17 10:27:08;;;;;;;40.95;29.95;;;;;;;;;;5033520;28;20048;-64
2023/09/17 10:29:35;;;;;;;44.97;32.53;;;;;;;;;;5051582;28;20133;-64
2023/09/17 10:32:03;;;;;;;42.63;31.13;;;;;;;;;;5051811;28;20040;-64
2023/09/17 10:34:31;;;;;;;42.92;32.45;;;;;;;;;;5051690;28;20064;-64
2023/09/17 10:36:58;;;;;;;41.88;32.20;;;;;;;;;;5051565;28;20364;-64
2023/09/17 10:39:26;;;;;;;42.35;33.22;;;;;;;;;;5051831;28;20387;-64
2023/09/17 10:41:54;;;;;;;42.67;34.72;;;;;;;;;;5051696;28;20060;-64
2023/09/17 10:44:20;;;;;;;44.53;32.90;;;;;;;;;;5051244;28;20053;-64
2023/09/17 10:46:47;;;;;;;41.42;34.17;;;;;;;;;;5051828;28;20388;-64
2023/09/17 10:49:14;;;;;;;50.20;36.17;;;;;;;;;;5051432;28;20041;-64
2023/09/17 10:51:40;;;;;;;44.38;34.28;;;;;;;;;;5051047;28;20049;-64
2023/09/17 10:54:06;;;;;;;39.33;31.23;;;;;;;;;;5051158;28;20045;-64
2023/09/17 10:56:33;;;;;;;48.30;34.88;;;;;;;;;;5033754;28;20067;-64
2023/09/17 10:58:59;;;;;;;42.72;33.78;;;;;;;;;;5051647;28;20052;-64
2023/09/17 11:01:28;;;;;;;45.08;34.30;;;;;;;;;;5051241;28;20055;-64
2023/09/17 11:04:06;;;;;;;47.08;35.83;;;;;;;;;;5051517;28;20049;-64
2023/09/17 11:06:34;;;;;;;41.58;34.20;;;;;;;;;;5051064;28;20048;-64
2023/09/17 11:09:01;;;;;;;43.92;34.97;;;;;;;;;;5051494;28;20053;-64
2023/09/17 11:11:29;;;;;;;50.22;37.35;;;;;;;;;;5051450;28;20037;-64
2023/09/17 11:13:55;;;;;;;46.17;37.22;;;;;;;;;;5050923;28;20094;-64
2023/09/17 11:16:21;;;;;;;47.03;37.63;;;;;;;;;;5046191;28;20419;-64
2023/09/17 11:19:07;;;;;;;50.63;37.30;;;;;;;;;;5031524;28;20056;-64
2023/09/17 11:21:55;;;;;;;52.40;39.08;;;;;;;;;;5031038;28;20055;-64
2023/09/17 11:24:22;;;;;;;49.55;37.58;;;;;;;;;;5029341;28;20052;-64
2023/09/17 11:26:48;;;;;;;44.55;36.40;;;;;;;;;;5048483;28;20041;-64
2023/09/17 11:29:14;;;;;;;47.88;36.05;;;;;;;;;;5050820;28;20037;-64
2023/09/17 11:31:53;;;;;;;43.00;33.15;;;;;;;;;;5051230;28;20045;-64
2023/09/17 11:34:20;;;;;;;45.63;35.30;;;;;;;;;;5051102;28;20063;-64
2023/09/17 11:36:47;;;;;;;44.45;35.60;;;;;;;;;;5050771;28;20363;-64
2023/09/17 11:39:20;;;;;;;46.03;36.28;;;;;;;;;;5053695;28;20418;-64
2023/09/17 11:41:50;;;;;;;41.88;33.58;;;;;;;;;;5055071;28;20507;-64
2023/09/17 11:44:17;;;;;;;40.72;31.73;;;;;;;;;;5054765;28;20041;-64
2023/09/17 11:46:43;;;;;;;44.10;33.22;;;;;;;;;;5055098;28;20043;-64
2023/09/17 11:49:10;;;;;;;43.28;32.63;;;;;;;;;;5055079;28;20037;-64
2023/09/17 11:51:42;;;;;;;42.22;33.30;;;;;;;;;;5054296;28;20771;-64
2023/09/17 11:54:11;;;;;;;41.83;33.85;;;;;;;;;;5054722;28;20123;-64
2023/09/17 11:56:46;;;;;;;38.47;30.73;;;;;;;;;;5054856;28;20119;-64
2023/09/17 11:59:15;;;;;;;43.45;33.40;;;;;;;;;;5054450;28;20049;-64
2023/09/17 12:01:45;;;;;;;46.28;33.60;;;;;;;;;;5054706;28;20551;-64
2023/09/17 12:04:11;;;;;;;42.28;33.10;;;;;;;;;;5054670;28;20773;-64
2023/09/17 12:06:39;;;;;;;42.53;32.50;;;;;;;;;;5054300;28;20084;-64
2023/09/17 12:09:15;;;;;;;40.97;32.35;;;;;;;;;;5054359;28;20049;-64
2023/09/17 12:11:42;;;;;;;40.10;31.88;;;;;;;;;;5054725;28;20044;-64
2023/09/17 12:14:08;;;;;;;42.05;32.80;;;;;;;;;;5054210;28;20086;-64
2023/09/17 12:16:34;;;;;;;40.30;31.88;;;;;;;;;;5047897;28;20042;-64
2023/09/17 12:19:00;;;;;;;40.22;31.27;;;;;;;;;;5034645;28;20060;-64
2023/09/17 12:21:28;;;;;;;46.10;32.38;;;;;;;;;;5034079;28;20520;-64
2023/09/17 12:23:57;;;;;;;38.88;31.45;;;;;;;;;;5034380;28;20046;-64
2023/09/17 12:26:36;;;;;;;38.70;31.35;;;;;;;;;;5048124;28;20045;-64
2023/09/17 12:29:09;;;;;;;41.92;31.95;;;;;;;;;;5053888;28;20048;-64
2023/09/17 12:31:36;;;;;;;42.92;31.63;;;;;;;;;;5054253;28;20423;-64
2023/09/17 12:34:03;;;;;;;44.17;32.58;;;;;;;;;;5036217;28;20044;-64
2023/09/17 12:36:30;;;;;;;45.85;34.60;;;;;;;;;;5053581;28;20171;-64
2023/09/17 12:38:56;;;;;;;41.63;33.03;;;;;;;;;;5053891;28;20048;-64
2023/09/17 12:41:22;;;;;;;47.80;33.80;;;;;;;;;;5054023;28;20057;-64
2023/09/17 12:43:49;;;;;;;47.40;32.60;;;;;;;;;;5053637;28;20080;-64
2023/09/17 12:46:15;;;;;;;46.78;34.30;;;;;;;;;;5053946;28;20068;-64
2023/09/17 12:48:41;;;;;;;43.55;33.53;;;;;;;;;;5053717;28;20077;-64
2023/09/17 12:51:07;;;;;;;41.67;32.70;;;;;;;;;;5052015;28;20049;-64
2023/09/17 12:53:33;;;;;;;51.47;37.28;;;;;;;;;;5053650;28;20037;-64
2023/09/17 12:56:04;;;;;;;47.95;34.20;;;;;;;;;;5053839;28;20369;-64
2023/09/17 12:58:33;;;;;;;50.05;35.50;;;;;;;;;;5053401;28;20051;-64
2023/09/17 13:01:06;;;;;;;51.10;36.30;;;;;;;;;;5053704;28;20045;-64
2023/09/17 13:03:32;;;;;;;47.10;35.90;;;;;;;;;;5053249;28;20052;-64
2023/09/17 13:05:58;;;;;;;53.65;37.85;;;;;;;;;;5053169;28;20044;-64
2023/09/17 13:08:27;;;;;;;50.60;37.17;;;;;;;;;;5035453;28;20044;-64
2023/09/17 13:10:55;;;;;;;55.85;38.40;;;;;;;;;;5053546;28;20099;-64
2023/09/17 13:13:21;;;;;;;51.67;38.45;;;;;;;;;;5053009;28;20088;-64
2023/09/17 13:15:48;;;;;;;59.13;41.67;;;;;;;;;;5052819;28;20072;-64
2023/09/17 13:18:15;;;;;;;55.70;40.60;;;;;;;;;;5033455;28;20095;-64
2023/09/17 13:20:41;;;;;;;58.75;42.40;;;;;;;;;;5032855;28;20128;-64
2023/09/17 13:23:08;;;;;;;62.33;43.10;;;;;;;;;;5033331;28;20480;-64
2023/09/17 13:25:34;;;;;;;57.70;42.35;;;;;;;;;;5040076;28;20037;-64
2023/09/17 13:28:14;;;;;;;59.55;42.13;;;;;;;;;;5052624;28;20045;-64
2023/09/17 13:30:41;;;;;;;61.42;42.25;;;;;;;;;;5053077;28;20116;-64
2023/09/17 13:33:07;;;;;;;59.70;43.30;;;;;;;;;;5052946;28;20125;-64
2023/09/17 13:35:33;;;;;;;53.95;41.03;;;;;;;;;;5052563;28;20139;-64
2023/09/17 13:37:59;;;;;;;61.58;43.22;;;;;;;;;;5035134;28;20138;-64
2023/09/17 13:40:25;;;;;;;62.30;44.65;;;;;;;;;;5052959;28;20049;-64
2023/09/17 13:42:51;;;;;;;69.57;46.88;;;;;;;;;;5052185;28;20045;-64
2023/09/17 13:45:19;;;;;;;70.28;47.90;;;;;;;;;;5052764;28;20068;-64
2023/09/17 13:47:45;;;;;;;69.10;47.20;;;;;;;;;;5034972;28;20060;-64
2023/09/17 13:50:11;;;;;;;65.18;45.70;;;;;;;;;;5052106;28;20471;-64
2023/09/17 13:52:37;;;;;;;69.13;45.67;;;;;;;;;;5052665;28;20112;-64
2023/09/17 13:55:03;;;;;;;66.05;45.83;;;;;;;;;;5052425;28;20041;-64
2023/09/17 13:57:29;;;;;;;63.10;43.42;;;;;;;;;;5052250;28;20068;-64
2023/09/17 13:59:55;;;;;;;60.33;41.63;;;;;;;;;;5052648;28;20037;-64
2023/09/17 14:02:21;;;;;;;64.80;44.20;;;;;;;;;;5052179;28;20072;-64
2023/09/17 14:04:48;;;;;;;57.78;41.05;;;;;;;;;;5052039;28;20092;-64
2023/09/17 14:07:14;;;;;;;61.13;41.80;;;;;;;;;;5052468;28;20159;-64
2023/09/17 14:09:40;;;;;;;66.43;43.78;;;;;;;;;;5052479;28;20471;-64
2023/09/17 14:12:08;;;;;;;59.80;42.08;;;;;;;;;;5051985;28;20049;-64
2023/09/17 14:14:34;;;;;;;64.10;41.80;;;;;;;;;;5052257;28;20549;-64